sensor_id;sensor_type;location;lat;lon;timestamp;P1;durP1;ratioP1;P2;durP2;ratioP2
65230;SDS011;51813;40.666;16.602;2023-07-08T00:00:11;5.68;;;3.40;;
65230;SDS011;51813;40.666;16.602;2023-07-08T00:02:40;4.43;;;3.40;;
65230;SDS011;51813;40.666;16.602;2023-07-08T00:05:07;4.97;;;3.85;;
65230;SDS011;51813;40.666;16.602;2023-07-08T00:07:34;4.40;;;3.13;;
65230;SDS011;51813;40.666;16.602;2023-07-08T00:10:00;4.63;;;3.28;;
65230;SDS011;51813;40.666;16.602;2023-07-08T00:12:26;5.53;;;3.63;;
65230;SDS011;51813;40.666;16.602;2023-07-08T00:14:51;4.45;;;3.30;;
65230;SDS011;51813;40.666;16.602;2023-07-08T00:17:17;4.22;;;3.28;;
65230;SDS011;51813;40.666;16.602;2023-07-08T00:19:43;4.70;;;3.50;;
65230;SDS011;51813;40.666;16.602;2023-07-08T00:22:12;5.65;;;3.47;;
65230;SDS011;51813;40.666;16.602;2023-07-08T00:24:42;4.20;;;3.40;;
65230;SDS011;51813;40.666;16.602;2023-07-08T00:27:09;4.65;;;3.38;;
65230;SDS011;51813;40.666;16.602;2023-07-08T00:29:37;6.45;;;3.78;;
65230;SDS011;51813;40.666;16.602;2023-07-08T00:32:09;4.32;;;3.30;;
65230;SDS011;51813;40.666;16.602;2023-07-08T00:34:40;3.83;;;2.92;;
65230;SDS011;51813;40.666;16.602;2023-07-08T00:37:08;5.00;;;3.40;;
65230;SDS011;51813;40.666;16.602;2023-07-08T00:39:36;4.63;;;3.20;;
65230;SDS011;51813;40.666;16.602;2023-07-08T00:42:01;5.60;;;3.20;;
65230;SDS011;51813;40.666;16.602;2023-07-08T00:44:38;4.68;;;3.15;;
65230;SDS011;51813;40.666;16.602;2023-07-08T00:47:08;4.30;;;3.00;;
65230;SDS011;51813;40.666;16.602;2023-07-08T00:49:44;5.10;;;3.40;;
65230;SDS011;51813;40.666;16.602;2023-07-08T00:54:45;4.57;;;3.42;;
65230;SDS011;51813;40.666;16.602;2023-07-08T00:57:11;4.63;;;3.22;;
65230;SDS011;51813;40.666;16.602;2023-07-08T01:00:11;5.30;;;3.08;;
65230;SDS011;51813;40.666;16.602;2023-07-08T01:02:32;5.13;;;3.20;;
65230;SDS011;51813;40.666;16.602;2023-07-08T01:05:17;4.38;;;3.10;;
65230;SDS011;51813;40.666;16.602;2023-07-08T01:07:45;5.25;;;3.28;;
65230;SDS011;51813;40.666;16.602;2023-07-08T01:10:17;4.75;;;3.10;;
65230;SDS011;51813;40.666;16.602;2023-07-08T01:12:48;4.00;;;3.10;;
65230;SDS011;51813;40.666;16.602;2023-07-08T01:15:20;4.20;;;3.20;;
65230;SDS011;51813;40.666;16.602;2023-07-08T01:17:48;4.63;;;3.10;;
65230;SDS011;51813;40.666;16.602;2023-07-08T01:20:18;4.10;;;2.90;;
65230;SDS011;51813;40.666;16.602;2023-07-08T01:22:44;5.03;;;3.40;;
65230;SDS011;51813;40.666;16.602;2023-07-08T01:25:10;4.13;;;3.13;;
65230;SDS011;51813;40.666;16.602;2023-07-08T01:27:39;4.63;;;3.03;;
65230;SDS011;51813;40.666;16.602;2023-07-08T01:30:08;4.88;;;3.28;;
65230;SDS011;51813;40.666;16.602;2023-07-08T01:32:40;5.25;;;3.05;;
65230;SDS011;51813;40.666;16.602;2023-07-08T01:35:12;7.65;;;3.42;;
65230;SDS011;51813;40.666;16.602;2023-07-08T01:37:46;5.05;;;3.45;;
65230;SDS011;51813;40.666;16.602;2023-07-08T01:40:23;4.78;;;3.50;;
65230;SDS011;51813;40.666;16.602;2023-07-08T01:42:52;4.22;;;2.90;;
65230;SDS011;51813;40.666;16.602;2023-07-08T01:45:19;5.63;;;3.40;;
65230;SDS011;51813;40.666;16.602;2023-07-08T01:47:56;4.82;;;3.20;;
65230;SDS011;51813;40.666;16.602;2023-07-08T01:50:29;4.40;;;3.00;;
65230;SDS011;51813;40.666;16.602;2023-07-08T01:52:58;5.10;;;3.03;;
65230;SDS011;51813;40.666;16.602;2023-07-08T01:55:25;4.95;;;2.92;;
65230;SDS011;51813;40.666;16.602;2023-07-08T01:57:54;4.30;;;3.20;;
65230;SDS011;51813;40.666;16.602;2023-07-08T02:00:20;4.13;;;2.90;;
65230;SDS011;51813;40.666;16.602;2023-07-08T02:02:46;5.18;;;2.83;;
65230;SDS011;51813;40.666;16.602;2023-07-08T02:05:13;5.22;;;3.13;;
65230;SDS011;51813;40.666;16.602;2023-07-08T02:07:38;4.95;;;2.92;;
65230;SDS011;51813;40.666;16.602;2023-07-08T02:10:04;4.80;;;3.03;;
65230;SDS011;51813;40.666;16.602;2023-07-08T02:12:31;6.05;;;3.00;;
65230;SDS011;51813;40.666;16.602;2023-07-08T02:14:59;4.40;;;3.00;;
65230;SDS011;51813;40.666;16.602;2023-07-08T02:17:25;4.85;;;3.10;;
65230;SDS011;51813;40.666;16.602;2023-07-08T02:19:53;4.35;;;2.90;;
65230;SDS011;51813;40.666;16.602;2023-07-08T02:22:19;4.78;;;2.85;;
65230;SDS011;51813;40.666;16.602;2023-07-08T02:24:45;4.78;;;2.97;;
65230;SDS011;51813;40.666;16.602;2023-07-08T02:27:11;5.10;;;3.10;;
65230;SDS011;51813;40.666;16.602;2023-07-08T02:29:37;3.70;;;2.60;;
65230;SDS011;51813;40.666;16.602;2023-07-08T02:32:03;5.15;;;3.00;;
65230;SDS011;51813;40.666;16.602;2023-07-08T02:34:29;3.83;;;2.58;;
65230;SDS011;51813;40.666;16.602;2023-07-08T02:36:55;4.53;;;2.85;;
65230;SDS011;51813;40.666;16.602;2023-07-08T02:39:21;5.78;;;2.92;;
65230;SDS011;51813;40.666;16.602;2023-07-08T02:41:47;4.07;;;2.63;;
65230;SDS011;51813;40.666;16.602;2023-07-08T02:44:13;3.53;;;2.60;;
65230;SDS011;51813;40.666;16.602;2023-07-08T02:46:39;4.63;;;2.92;;
65230;SDS011;51813;40.666;16.602;2023-07-08T02:49:04;4.18;;;2.72;;
65230;SDS011;51813;40.666;16.602;2023-07-08T02:51:30;6.63;;;2.88;;
65230;SDS011;51813;40.666;16.602;2023-07-08T02:53:56;4.03;;;2.60;;
65230;SDS011;51813;40.666;16.602;2023-07-08T02:56:22;4.93;;;2.88;;
65230;SDS011;51813;40.666;16.602;2023-07-08T02:58:48;4.20;;;3.00;;
65230;SDS011;51813;40.666;16.602;2023-07-08T03:01:14;5.95;;;3.20;;
65230;SDS011;51813;40.666;16.602;2023-07-08T03:03:46;4.82;;;2.78;;
65230;SDS011;51813;40.666;16.602;2023-07-08T03:06:12;5.60;;;2.80;;
65230;SDS011;51813;40.666;16.602;2023-07-08T03:08:39;4.32;;;2.72;;
65230;SDS011;51813;40.666;16.602;2023-07-08T03:11:05;4.35;;;3.05;;
65230;SDS011;51813;40.666;16.602;2023-07-08T03:13:32;4.43;;;2.90;;
65230;SDS011;51813;40.666;16.602;2023-07-08T03:15:59;4.38;;;2.63;;
65230;SDS011;51813;40.666;16.602;2023-07-08T03:18:26;3.65;;;2.55;;
65230;SDS011;51813;40.666;16.602;2023-07-08T03:20:53;3.80;;;2.65;;
65230;SDS011;51813;40.666;16.602;2023-07-08T03:23:21;4.03;;;2.65;;
65230;SDS011;51813;40.666;16.602;2023-07-08T03:25:50;4.35;;;2.70;;
65230;SDS011;51813;40.666;16.602;2023-07-08T03:28:16;5.50;;;3.03;;
65230;SDS011;51813;40.666;16.602;2023-07-08T03:30:43;4.35;;;3.00;;
65230;SDS011;51813;40.666;16.602;2023-07-08T03:33:09;3.90;;;2.53;;
65230;SDS011;51813;40.666;16.602;2023-07-08T03:35:36;5.43;;;2.55;;
65230;SDS011;51813;40.666;16.602;2023-07-08T03:38:03;4.18;;;2.60;;
65230;SDS011;51813;40.666;16.602;2023-07-08T03:40:29;4.22;;;2.60;;
65230;SDS011;51813;40.666;16.602;2023-07-08T03:42:56;4.82;;;2.72;;
65230;SDS011;51813;40.666;16.602;2023-07-08T03:45:21;4.60;;;2.80;;
65230;SDS011;51813;40.666;16.602;2023-07-08T03:47:47;3.90;;;2.58;;
65230;SDS011;51813;40.666;16.602;2023-07-08T03:50:20;4.07;;;2.75;;
65230;SDS011;51813;40.666;16.602;2023-07-08T03:52:48;4.50;;;2.60;;
65230;SDS011;51813;40.666;16.602;2023-07-08T03:55:15;3.83;;;2.72;;
65230;SDS011;51813;40.666;16.602;2023-07-08T03:57:41;3.70;;;2.60;;
65230;SDS011;51813;40.666;16.602;2023-07-08T04:00:07;4.28;;;2.70;;
65230;SDS011;51813;40.666;16.602;2023-07-08T04:02:40;4.43;;;2.53;;
65230;SDS011;51813;40.666;16.602;2023-07-08T04:05:07;4.68;;;2.53;;
65230;SDS011;51813;40.666;16.602;2023-07-08T04:07:39;4.32;;;2.45;;
65230;SDS011;51813;40.666;16.602;2023-07-08T04:10:04;4.63;;;2.67;;
65230;SDS011;51813;40.666;16.602;2023-07-08T04:12:30;4.45;;;2.67;;
65230;SDS011;51813;40.666;16.602;2023-07-08T04:14:56;4.65;;;3.00;;
65230;SDS011;51813;40.666;16.602;2023-07-08T04:17:22;4.22;;;2.70;;
65230;SDS011;51813;40.666;16.602;2023-07-08T04:19:48;4.80;;;2.63;;
65230;SDS011;51813;40.666;16.602;2023-07-08T04:22:14;3.78;;;2.42;;
65230;SDS011;51813;40.666;16.602;2023-07-08T04:24:40;4.63;;;2.60;;
65230;SDS011;51813;40.666;16.602;2023-07-08T04:27:07;3.33;;;2.50;;
65230;SDS011;51813;40.666;16.602;2023-07-08T04:29:40;3.92;;;2.55;;
65230;SDS011;51813;40.666;16.602;2023-07-08T04:32:06;4.15;;;2.85;;
65230;SDS011;51813;40.666;16.602;2023-07-08T04:34:32;3.90;;;2.53;;
65230;SDS011;51813;40.666;16.602;2023-07-08T04:36:58;3.92;;;2.75;;
65230;SDS011;51813;40.666;16.602;2023-07-08T04:39:24;4.85;;;2.45;;
65230;SDS011;51813;40.666;16.602;2023-07-08T04:41:49;3.50;;;2.40;;
65230;SDS011;51813;40.666;16.602;2023-07-08T04:44:15;5.07;;;2.90;;
65230;SDS011;51813;40.666;16.602;2023-07-08T04:46:48;4.15;;;2.75;;
65230;SDS011;51813;40.666;16.602;2023-07-08T04:49:19;3.72;;;2.42;;
65230;SDS011;51813;40.666;16.602;2023-07-08T04:51:46;4.20;;;2.78;;
65230;SDS011;51813;40.666;16.602;2023-07-08T04:54:12;3.97;;;2.60;;
65230;SDS011;51813;40.666;16.602;2023-07-08T04:59:05;4.72;;;2.85;;
65230;SDS011;51813;40.666;16.602;2023-07-08T05:01:34;4.35;;;2.67;;
65230;SDS011;51813;40.666;16.602;2023-07-08T05:04:00;4.43;;;2.75;;
65230;SDS011;51813;40.666;16.602;2023-07-08T05:06:25;4.90;;;2.80;;
65230;SDS011;51813;40.666;16.602;2023-07-08T05:08:51;4.55;;;2.80;;
65230;SDS011;51813;40.666;16.602;2023-07-08T05:11:17;5.05;;;3.03;;
65230;SDS011;51813;40.666;16.602;2023-07-08T05:13:42;4.25;;;2.67;;
65230;SDS011;51813;40.666;16.602;2023-07-08T05:16:08;5.15;;;2.88;;
65230;SDS011;51813;40.666;16.602;2023-07-08T05:18:34;4.85;;;2.90;;
65230;SDS011;51813;40.666;16.602;2023-07-08T05:20:59;5.28;;;2.60;;
65230;SDS011;51813;40.666;16.602;2023-07-08T05:23:26;4.00;;;2.70;;
65230;SDS011;51813;40.666;16.602;2023-07-08T05:25:51;4.13;;;2.58;;
65230;SDS011;51813;40.666;16.602;2023-07-08T05:28:19;4.03;;;2.70;;
65230;SDS011;51813;40.666;16.602;2023-07-08T05:30:46;5.32;;;3.05;;
65230;SDS011;51813;40.666;16.602;2023-07-08T05:33:12;5.13;;;2.85;;
65230;SDS011;51813;40.666;16.602;2023-07-08T05:35:38;4.85;;;2.70;;
65230;SDS011;51813;40.666;16.602;2023-07-08T05:38:04;4.75;;;2.92;;
65230;SDS011;51813;40.666;16.602;2023-07-08T05:40:29;4.68;;;2.97;;
65230;SDS011;51813;40.666;16.602;2023-07-08T05:42:55;5.00;;;2.83;;
65230;SDS011;51813;40.666;16.602;2023-07-08T05:45:21;3.63;;;2.67;;
65230;SDS011;51813;40.666;16.602;2023-07-08T05:47:46;4.85;;;2.85;;
65230;SDS011;51813;40.666;16.602;2023-07-08T05:50:12;4.97;;;2.97;;
65230;SDS011;51813;40.666;16.602;2023-07-08T05:52:38;4.82;;;2.85;;
65230;SDS011;51813;40.666;16.602;2023-07-08T05:55:04;5.22;;;2.97;;
65230;SDS011;51813;40.666;16.602;2023-07-08T05:57:29;8.77;;;3.10;;
65230;SDS011;51813;40.666;16.602;2023-07-08T05:59:55;5.72;;;2.95;;
65230;SDS011;51813;40.666;16.602;2023-07-08T06:02:21;5.75;;;3.22;;
65230;SDS011;51813;40.666;16.602;2023-07-08T06:04:48;5.03;;;3.20;;
65230;SDS011;51813;40.666;16.602;2023-07-08T06:07:14;5.35;;;3.22;;
65230;SDS011;51813;40.666;16.602;2023-07-08T06:09:39;5.95;;;3.17;;
65230;SDS011;51813;40.666;16.602;2023-07-08T06:12:05;5.22;;;3.08;;
65230;SDS011;51813;40.666;16.602;2023-07-08T06:14:31;6.15;;;2.95;;
65230;SDS011;51813;40.666;16.602;2023-07-08T06:16:57;6.47;;;2.90;;
65230;SDS011;51813;40.666;16.602;2023-07-08T06:19:24;4.85;;;3.20;;
65230;SDS011;51813;40.666;16.602;2023-07-08T06:21:49;5.20;;;3.25;;
65230;SDS011;51813;40.666;16.602;2023-07-08T06:24:15;4.60;;;2.70;;
65230;SDS011;51813;40.666;16.602;2023-07-08T06:26:41;6.43;;;2.97;;
65230;SDS011;51813;40.666;16.602;2023-07-08T06:29:07;5.45;;;3.08;;
65230;SDS011;51813;40.666;16.602;2023-07-08T06:31:32;4.30;;;2.90;;
65230;SDS011;51813;40.666;16.602;2023-07-08T06:33:59;5.00;;;2.70;;
65230;SDS011;51813;40.666;16.602;2023-07-08T06:36:25;6.10;;;3.00;;
65230;SDS011;51813;40.666;16.602;2023-07-08T06:38:51;5.25;;;3.17;;
65230;SDS011;51813;40.666;16.602;2023-07-08T06:41:17;6.68;;;3.10;;
65230;SDS011;51813;40.666;16.602;2023-07-08T06:43:42;5.10;;;2.80;;
65230;SDS011;51813;40.666;16.602;2023-07-08T06:46:08;4.95;;;3.30;;
65230;SDS011;51813;40.666;16.602;2023-07-08T06:48:34;6.40;;;3.33;;
65230;SDS011;51813;40.666;16.602;2023-07-08T06:50:59;5.57;;;3.20;;
65230;SDS011;51813;40.666;16.602;2023-07-08T06:53:25;5.55;;;3.17;;
65230;SDS011;51813;40.666;16.602;2023-07-08T06:55:51;5.03;;;3.10;;
65230;SDS011;51813;40.666;16.602;2023-07-08T06:58:16;5.25;;;3.00;;
65230;SDS011;51813;40.666;16.602;2023-07-08T07:00:42;5.90;;;3.10;;
65230;SDS011;51813;40.666;16.602;2023-07-08T07:03:09;5.47;;;3.50;;
65230;SDS011;51813;40.666;16.602;2023-07-08T07:05:35;5.20;;;3.22;;
65230;SDS011;51813;40.666;16.602;2023-07-08T07:08:01;5.38;;;3.17;;
65230;SDS011;51813;40.666;16.602;2023-07-08T07:10:27;6.43;;;3.05;;
65230;SDS011;51813;40.666;16.602;2023-07-08T07:12:53;4.65;;;2.83;;
65230;SDS011;51813;40.666;16.602;2023-07-08T07:15:18;6.63;;;3.30;;
65230;SDS011;51813;40.666;16.602;2023-07-08T07:17:44;5.68;;;3.40;;
65230;SDS011;51813;40.666;16.602;2023-07-08T07:20:10;5.95;;;3.45;;
65230;SDS011;51813;40.666;16.602;2023-07-08T07:22:36;5.53;;;2.90;;
65230;SDS011;51813;40.666;16.602;2023-07-08T07:25:02;5.97;;;3.38;;
65230;SDS011;51813;40.666;16.602;2023-07-08T07:27:28;6.53;;;3.30;;
65230;SDS011;51813;40.666;16.602;2023-07-08T07:29:54;7.20;;;3.15;;
65230;SDS011;51813;40.666;16.602;2023-07-08T07:32:22;8.73;;;3.70;;
65230;SDS011;51813;40.666;16.602;2023-07-08T07:34:49;7.10;;;3.40;;
65230;SDS011;51813;40.666;16.602;2023-07-08T07:37:18;5.05;;;3.25;;
65230;SDS011;51813;40.666;16.602;2023-07-08T07:39:45;5.32;;;3.42;;
65230;SDS011;51813;40.666;16.602;2023-07-08T07:42:11;6.03;;;3.38;;
65230;SDS011;51813;40.666;16.602;2023-07-08T07:47:06;5.00;;;2.97;;
65230;SDS011;51813;40.666;16.602;2023-07-08T07:49:32;5.68;;;3.15;;
65230;SDS011;51813;40.666;16.602;2023-07-08T07:51:58;5.82;;;2.97;;
65230;SDS011;51813;40.666;16.602;2023-07-08T07:54:25;5.43;;;3.10;;
65230;SDS011;51813;40.666;16.602;2023-07-08T07:56:50;6.10;;;3.45;;
65230;SDS011;51813;40.666;16.602;2023-07-08T07:59:17;5.30;;;3.03;;
65230;SDS011;51813;40.666;16.602;2023-07-08T08:01:42;5.22;;;3.40;;
65230;SDS011;51813;40.666;16.602;2023-07-08T08:04:09;4.95;;;3.20;;
65230;SDS011;51813;40.666;16.602;2023-07-08T08:06:35;5.78;;;3.30;;
65230;SDS011;51813;40.666;16.602;2023-07-08T08:09:01;6.90;;;3.13;;
65230;SDS011;51813;40.666;16.602;2023-07-08T08:11:27;5.10;;;3.38;;
65230;SDS011;51813;40.666;16.602;2023-07-08T08:13:53;6.75;;;2.97;;
65230;SDS011;51813;40.666;16.602;2023-07-08T08:16:19;7.07;;;2.97;;
65230;SDS011;51813;40.666;16.602;2023-07-08T08:18:45;5.63;;;3.40;;
65230;SDS011;51813;40.666;16.602;2023-07-08T08:21:11;5.50;;;3.00;;
65230;SDS011;51813;40.666;16.602;2023-07-08T08:23:37;5.70;;;3.00;;
65230;SDS011;51813;40.666;16.602;2023-07-08T08:26:02;4.97;;;3.30;;
65230;SDS011;51813;40.666;16.602;2023-07-08T08:28:28;5.45;;;3.60;;
65230;SDS011;51813;40.666;16.602;2023-07-08T08:30:54;5.57;;;3.05;;
65230;SDS011;51813;40.666;16.602;2023-07-08T08:33:20;7.20;;;3.58;;
65230;SDS011;51813;40.666;16.602;2023-07-08T08:35:46;5.57;;;3.35;;
65230;SDS011;51813;40.666;16.602;2023-07-08T08:38:12;5.13;;;2.88;;
65230;SDS011;51813;40.666;16.602;2023-07-08T08:40:41;5.25;;;3.10;;
65230;SDS011;51813;40.666;16.602;2023-07-08T08:43:12;4.50;;;2.92;;
65230;SDS011;51813;40.666;16.602;2023-07-08T08:48:51;6.97;;;3.05;;
65230;SDS011;51813;40.666;16.602;2023-07-08T08:51:19;5.82;;;3.22;;
65230;SDS011;51813;40.666;16.602;2023-07-08T08:53:45;6.07;;;3.20;;
65230;SDS011;51813;40.666;16.602;2023-07-08T08:56:18;5.63;;;3.17;;
65230;SDS011;51813;40.666;16.602;2023-07-08T09:01:22;6.93;;;3.42;;
65230;SDS011;51813;40.666;16.602;2023-07-08T09:03:52;5.18;;;3.03;;
65230;SDS011;51813;40.666;16.602;2023-07-08T09:06:21;6.05;;;3.35;;
65230;SDS011;51813;40.666;16.602;2023-07-08T09:08:56;5.05;;;2.88;;
65230;SDS011;51813;40.666;16.602;2023-07-08T09:11:42;5.15;;;3.08;;
65230;SDS011;51813;40.666;16.602;2023-07-08T09:14:26;6.22;;;3.45;;
65230;SDS011;51813;40.666;16.602;2023-07-08T09:19:50;9.73;;;3.53;;
65230;SDS011;51813;40.666;16.602;2023-07-08T09:22:58;8.38;;;3.40;;
65230;SDS011;51813;40.666;16.602;2023-07-08T09:28:16;9.48;;;3.65;;
65230;SDS011;51813;40.666;16.602;2023-07-08T09:30:42;6.93;;;3.55;;
65230;SDS011;51813;40.666;16.602;2023-07-08T09:33:13;5.45;;;3.40;;
65230;SDS011;51813;40.666;16.602;2023-07-08T09:35:43;6.68;;;3.15;;
65230;SDS011;51813;40.666;16.602;2023-07-08T09:38:16;6.85;;;3.42;;
65230;SDS011;51813;40.666;16.602;2023-07-08T09:40:52;6.45;;;3.30;;
65230;SDS011;51813;40.666;16.602;2023-07-08T09:43:25;6.82;;;3.28;;
65230;SDS011;51813;40.666;16.602;2023-07-08T09:45:52;6.68;;;3.30;;
65230;SDS011;51813;40.666;16.602;2023-07-08T09:48:25;5.25;;;3.22;;
65230;SDS011;51813;40.666;16.602;2023-07-08T09:50:58;8.13;;;3.65;;
65230;SDS011;51813;40.666;16.602;2023-07-08T09:53:24;8.20;;;3.88;;
65230;SDS011;51813;40.666;16.602;2023-07-08T09:55:51;6.80;;;2.88;;
65230;SDS011;51813;40.666;16.602;2023-07-08T09:58:25;6.35;;;3.13;;
65230;SDS011;51813;40.666;16.602;2023-07-08T10:00:57;8.23;;;3.33;;
65230;SDS011;51813;40.666;16.602;2023-07-08T10:03:27;6.43;;;3.55;;
65230;SDS011;51813;40.666;16.602;2023-07-08T10:05:56;5.72;;;3.25;;
65230;SDS011;51813;40.666;16.602;2023-07-08T10:08:27;8.13;;;3.60;;
65230;SDS011;51813;40.666;16.602;2023-07-08T10:13:53;7.50;;;3.78;;
65230;SDS011;51813;40.666;16.602;2023-07-08T10:16:24;5.90;;;3.05;;
65230;SDS011;51813;40.666;16.602;2023-07-08T10:18:53;7.28;;;3.60;;
65230;SDS011;51813;40.666;16.602;2023-07-08T10:21:31;7.28;;;3.35;;
65230;SDS011;51813;40.666;16.602;2023-07-08T10:32:48;5.80;;;3.13;;
65230;SDS011;51813;40.666;16.602;2023-07-08T10:45:53;5.68;;;3.35;;
65230;SDS011;51813;40.666;16.602;2023-07-08T10:48:52;6.57;;;3.20;;
65230;SDS011;51813;40.666;16.602;2023-07-08T10:51:34;8.23;;;3.45;;
65230;SDS011;51813;40.666;16.602;2023-07-08T10:59:15;5.95;;;3.45;;
65230;SDS011;51813;40.666;16.602;2023-07-08T11:04:52;6.30;;;3.70;;
65230;SDS011;51813;40.666;16.602;2023-07-08T11:10:32;7.63;;;3.63;;
65230;SDS011;51813;40.666;16.602;2023-07-08T11:13:05;7.18;;;3.67;;
65230;SDS011;51813;40.666;16.602;2023-07-08T11:15:41;8.15;;;3.45;;
65230;SDS011;51813;40.666;16.602;2023-07-08T11:18:20;5.85;;;3.22;;
65230;SDS011;51813;40.666;16.602;2023-07-08T11:23:29;6.82;;;3.70;;
65230;SDS011;51813;40.666;16.602;2023-07-08T11:28:53;10.43;;;3.63;;
65230;SDS011;51813;40.666;16.602;2023-07-08T11:31:23;6.80;;;3.35;;
65230;SDS011;51813;40.666;16.602;2023-07-08T11:33:51;7.13;;;3.40;;
65230;SDS011;51813;40.666;16.602;2023-07-08T11:36:18;6.18;;;3.30;;
65230;SDS011;51813;40.666;16.602;2023-07-08T11:38:47;10.65;;;3.70;;
65230;SDS011;51813;40.666;16.602;2023-07-08T11:41:15;6.60;;;3.22;;
65230;SDS011;51813;40.666;16.602;2023-07-08T11:43:55;7.03;;;2.90;;
65230;SDS011;51813;40.666;16.602;2023-07-08T11:46:27;7.32;;;3.40;;
65230;SDS011;51813;40.666;16.602;2023-07-08T11:48:56;9.15;;;3.28;;
65230;SDS011;51813;40.666;16.602;2023-07-08T11:51:28;6.15;;;3.40;;
65230;SDS011;51813;40.666;16.602;2023-07-08T11:56:59;5.22;;;3.10;;
65230;SDS011;51813;40.666;16.602;2023-07-08T11:59:30;5.15;;;2.97;;
65230;SDS011;51813;40.666;16.602;2023-07-08T12:02:09;5.65;;;3.20;;
65230;SDS011;51813;40.666;16.602;2023-07-08T12:05:00;6.97;;;3.35;;
65230;SDS011;51813;40.666;16.602;2023-07-08T12:07:40;5.30;;;3.20;;
65230;SDS011;51813;40.666;16.602;2023-07-08T12:10:17;6.55;;;3.40;;
65230;SDS011;51813;40.666;16.602;2023-07-08T12:12:51;5.28;;;3.25;;
65230;SDS011;51813;40.666;16.602;2023-07-08T12:15:20;7.20;;;3.22;;
65230;SDS011;51813;40.666;16.602;2023-07-08T12:17:51;4.40;;;2.90;;
65230;SDS011;51813;40.666;16.602;2023-07-08T12:20:38;5.97;;;2.90;;
65230;SDS011;51813;40.666;16.602;2023-07-08T12:23:24;5.07;;;2.85;;
65230;SDS011;51813;40.666;16.602;2023-07-08T12:25:51;6.03;;;2.75;;
65230;SDS011;51813;40.666;16.602;2023-07-08T12:28:18;4.97;;;2.85;;
65230;SDS011;51813;40.666;16.602;2023-07-08T12:30:45;5.78;;;3.05;;
65230;SDS011;51813;40.666;16.602;2023-07-08T12:33:16;4.97;;;3.10;;
65230;SDS011;51813;40.666;16.602;2023-07-08T12:35:47;5.90;;;2.90;;
65230;SDS011;51813;40.666;16.602;2023-07-08T12:38:21;4.93;;;2.85;;
65230;SDS011;51813;40.666;16.602;2023-07-08T12:40:53;5.03;;;3.00;;
65230;SDS011;51813;40.666;16.602;2023-07-08T12:43:22;5.80;;;2.90;;
65230;SDS011;51813;40.666;16.602;2023-07-08T12:45:47;4.53;;;2.78;;
65230;SDS011;51813;40.666;16.602;2023-07-08T12:48:13;5.55;;;3.25;;
65230;SDS011;51813;40.666;16.602;2023-07-08T12:50:39;5.03;;;3.00;;
65230;SDS011;51813;40.666;16.602;2023-07-08T12:53:05;5.63;;;3.13;;
65230;SDS011;51813;40.666;16.602;2023-07-08T12:55:35;4.65;;;2.80;;
65230;SDS011;51813;40.666;16.602;2023-07-08T12:58:05;5.05;;;2.78;;
65230;SDS011;51813;40.666;16.602;2023-07-08T13:00:54;5.60;;;2.97;;
65230;SDS011;51813;40.666;16.602;2023-07-08T13:03:26;5.43;;;2.83;;
65230;SDS011;51813;40.666;16.602;2023-07-08T13:05:54;4.93;;;2.83;;
65230;SDS011;51813;40.666;16.602;2023-07-08T13:08:23;4.85;;;2.50;;
65230;SDS011;51813;40.666;16.602;2023-07-08T13:10:52;6.03;;;3.00;;
65230;SDS011;51813;40.666;16.602;2023-07-08T13:13:23;4.15;;;2.58;;
65230;SDS011;51813;40.666;16.602;2023-07-08T13:15:51;4.82;;;2.92;;
65230;SDS011;51813;40.666;16.602;2023-07-08T13:18:18;5.15;;;2.70;;
65230;SDS011;51813;40.666;16.602;2023-07-08T13:20:53;5.60;;;2.85;;
65230;SDS011;51813;40.666;16.602;2023-07-08T13:23:20;4.95;;;2.85;;
65230;SDS011;51813;40.666;16.602;2023-07-08T13:25:48;4.60;;;2.83;;
65230;SDS011;51813;40.666;16.602;2023-07-08T13:28:26;4.72;;;2.53;;
65230;SDS011;51813;40.666;16.602;2023-07-08T13:31:02;4.47;;;2.67;;
65230;SDS011;51813;40.666;16.602;2023-07-08T13:33:38;5.28;;;2.60;;
65230;SDS011;51813;40.666;16.602;2023-07-08T13:36:09;5.90;;;2.67;;
65230;SDS011;51813;40.666;16.602;2023-07-08T13:38:35;4.53;;;2.63;;
65230;SDS011;51813;40.666;16.602;2023-07-08T13:41:04;5.18;;;2.80;;
65230;SDS011;51813;40.666;16.602;2023-07-08T13:43:31;4.22;;;2.78;;
65230;SDS011;51813;40.666;16.602;2023-07-08T13:45:59;5.28;;;3.15;;
65230;SDS011;51813;40.666;16.602;2023-07-08T13:48:30;5.70;;;3.13;;
65230;SDS011;51813;40.666;16.602;2023-07-08T13:51:03;6.53;;;3.35;;
65230;SDS011;51813;40.666;16.602;2023-07-08T13:56:15;5.50;;;3.30;;
65230;SDS011;51813;40.666;16.602;2023-07-08T13:58:45;5.68;;;3.33;;
65230;SDS011;51813;40.666;16.602;2023-07-08T14:01:17;6.25;;;3.20;;
65230;SDS011;51813;40.666;16.602;2023-07-08T14:03:48;5.70;;;3.20;;
65230;SDS011;51813;40.666;16.602;2023-07-08T14:06:15;4.75;;;3.13;;
65230;SDS011;51813;40.666;16.602;2023-07-08T14:08:42;5.03;;;3.10;;
65230;SDS011;51813;40.666;16.602;2023-07-08T14:11:08;6.68;;;3.13;;
65230;SDS011;51813;40.666;16.602;2023-07-08T14:13:34;5.93;;;3.55;;
65230;SDS011;51813;40.666;16.602;2023-07-08T14:16:00;5.05;;;3.30;;
65230;SDS011;51813;40.666;16.602;2023-07-08T14:18:28;5.57;;;3.33;;
65230;SDS011;51813;40.666;16.602;2023-07-08T14:20:54;5.43;;;3.17;;
65230;SDS011;51813;40.666;16.602;2023-07-08T14:23:20;5.07;;;3.00;;
65230;SDS011;51813;40.666;16.602;2023-07-08T14:25:46;5.82;;;3.58;;
65230;SDS011;51813;40.666;16.602;2023-07-08T14:28:11;5.55;;;3.08;;
65230;SDS011;51813;40.666;16.602;2023-07-08T14:30:44;7.07;;;3.47;;
65230;SDS011;51813;40.666;16.602;2023-07-08T14:33:12;8.20;;;3.35;;
65230;SDS011;51813;40.666;16.602;2023-07-08T14:35:38;5.53;;;3.30;;
65230;SDS011;51813;40.666;16.602;2023-07-08T14:38:09;5.93;;;3.78;;
65230;SDS011;51813;40.666;16.602;2023-07-08T14:40:37;5.15;;;3.33;;
65230;SDS011;51813;40.666;16.602;2023-07-08T14:43:05;6.10;;;3.50;;
65230;SDS011;51813;40.666;16.602;2023-07-08T14:45:52;5.07;;;3.35;;
65230;SDS011;51813;40.666;16.602;2023-07-08T14:48:20;6.55;;;3.25;;
65230;SDS011;51813;40.666;16.602;2023-07-08T14:50:46;7.60;;;3.28;;
65230;SDS011;51813;40.666;16.602;2023-07-08T14:53:15;5.15;;;3.10;;
65230;SDS011;51813;40.666;16.602;2023-07-08T14:55:43;5.10;;;3.30;;
65230;SDS011;51813;40.666;16.602;2023-07-08T14:58:25;5.35;;;3.28;;
65230;SDS011;51813;40.666;16.602;2023-07-08T15:00:54;6.45;;;3.45;;
65230;SDS011;51813;40.666;16.602;2023-07-08T15:03:22;5.93;;;3.25;;
65230;SDS011;51813;40.666;16.602;2023-07-08T15:05:51;5.07;;;2.88;;
65230;SDS011;51813;40.666;16.602;2023-07-08T15:08:17;5.63;;;3.22;;
65230;SDS011;51813;40.666;16.602;2023-07-08T15:10:46;4.93;;;3.17;;
65230;SDS011;51813;40.666;16.602;2023-07-08T15:13:14;5.45;;;3.42;;
65230;SDS011;51813;40.666;16.602;2023-07-08T15:15:42;5.55;;;3.38;;
65230;SDS011;51813;40.666;16.602;2023-07-08T15:18:15;6.60;;;3.30;;
65230;SDS011;51813;40.666;16.602;2023-07-08T15:20:42;5.47;;;3.33;;
65230;SDS011;51813;40.666;16.602;2023-07-08T15:23:11;4.70;;;3.00;;
65230;SDS011;51813;40.666;16.602;2023-07-08T15:25:37;5.05;;;3.15;;
65230;SDS011;51813;40.666;16.602;2023-07-08T15:28:07;6.32;;;3.10;;
65230;SDS011;51813;40.666;16.602;2023-07-08T15:30:41;4.90;;;3.20;;
65230;SDS011;51813;40.666;16.602;2023-07-08T15:33:08;4.68;;;3.10;;
65230;SDS011;51813;40.666;16.602;2023-07-08T15:35:34;6.78;;;3.53;;
65230;SDS011;51813;40.666;16.602;2023-07-08T15:38:00;6.35;;;3.47;;
65230;SDS011;51813;40.666;16.602;2023-07-08T15:40:29;5.70;;;3.28;;
65230;SDS011;51813;40.666;16.602;2023-07-08T15:42:58;5.07;;;3.08;;
65230;SDS011;51813;40.666;16.602;2023-07-08T15:45:28;6.47;;;3.40;;